createdAt,value
2018-12-31T00:05:03.813Z,83289.84
2018-12-31T00:10:07.874Z,83294.43
2018-12-31T00:15:11.934Z,83295.21
2018-12-31T00:20:16.271Z,83297.77
2018-12-31T00:25:20.897Z,83298.74
2018-12-31T00:30:25.289Z,83302.55
2018-12-31T00:35:29.336Z,83301.80
2018-12-31T00:40:33.679Z,83305.59
2018-12-31T00:45:37.781Z,83307.66
2018-12-31T00:50:41.903Z,83305.74
2018-12-31T00:55:46.305Z,83306.16
2018-12-31T01:00:50.394Z,83310.55
2018-12-31T01:05:54.690Z,83308.41
2018-12-31T01:10:58.724Z,83307.98
2018-12-31T01:16:02.801Z,83311.17
2018-12-31T01:21:07.125Z,83313.25
2018-12-31T01:26:11.194Z,83312.67
2018-12-31T01:31:15.707Z,83314.07
2018-12-31T01:36:20.043Z,83314.95
2018-12-31T01:41:24.255Z,83313.73
2018-12-31T01:46:28.548Z,83319.69
2018-12-31T01:51:32.893Z,83319.72
2018-12-31T01:56:37.090Z,83318.64
2018-12-31T02:01:41.440Z,83321.25
2018-12-31T02:06:45.805Z,83324.95
2018-12-31T02:11:50.912Z,83322.81
2018-12-31T02:16:55.378Z,83321.34
2018-12-31T02:22:00.138Z,83321.20
2018-12-31T02:27:04.515Z,83322.98
2018-12-31T02:32:08.966Z,83324.68
2018-12-31T02:37:13.373Z,83323.38
2018-12-31T02:42:17.747Z,83324.34
2018-12-31T02:47:21.963Z,83326.06
2018-12-31T02:52:26.293Z,83326.75
2018-12-31T02:57:30.597Z,83325.98
2018-12-31T03:02:34.922Z,83328.48
2018-12-31T03:07:39.340Z,83327.42
2018-12-31T03:12:43.961Z,83327.25
2018-12-31T03:17:48.331Z,83329.15
2018-12-31T03:22:52.708Z,83333.55
2018-12-31T03:27:57.094Z,83331.08
2018-12-31T03:33:01.941Z,83329.30
2018-12-31T03:38:06.036Z,83333.38
2018-12-31T03:43:10.362Z,83327.52
2018-12-31T03:48:15.081Z,83327.42
2018-12-31T03:53:19.729Z,83326.41
2018-12-31T03:58:23.806Z,83324.39
2018-12-31T04:03:27.850Z,83324.89
2018-12-31T04:08:31.903Z,83322.75
2018-12-31T04:13:36.199Z,83317.98
2018-12-31T04:18:40.526Z,83318.14
2018-12-31T04:23:46.395Z,83316.34
2018-12-31T04:28:50.774Z,83321.63
2018-12-31T04:33:55.161Z,83319.26
2018-12-31T04:39:00.982Z,83320.69
2018-12-31T04:44:05.340Z,83321.41
2018-12-31T04:49:09.939Z,83319.05
2018-12-31T04:54:14.092Z,83318.88
2018-12-31T04:59:18.428Z,83319.05
2018-12-31T05:04:22.806Z,83318.88
2018-12-31T05:09:27.186Z,83324.61
2018-12-31T05:14:31.564Z,83322.38
2018-12-31T05:19:35.663Z,83323.98
2018-12-31T05:24:40.235Z,83326.45
2018-12-31T05:29:44.636Z,83329.31
2018-12-31T05:34:49.002Z,83334.55
2018-12-31T05:39:53.085Z,83334.65
2018-12-31T05:44:57.440Z,83337.95
2018-12-31T05:50:02.129Z,83337.78
2018-12-31T05:55:06.501Z,83340.88
2018-12-31T06:00:10.869Z,83341.25
2018-12-31T06:05:15.195Z,83343.02
2018-12-31T06:10:19.778Z,83344.92
2018-12-31T06:15:24.213Z,83344.64
2018-12-31T06:20:28.503Z,83350.17
2018-12-31T06:25:33.085Z,83349.80
2018-12-31T06:30:37.698Z,83352.99
2018-12-31T06:35:42.322Z,83352.79
2018-12-31T06:40:46.414Z,83353.59
2018-12-31T06:45:50.989Z,83354.66
2018-12-31T06:50:55.334Z,83356.95
2018-12-31T06:55:59.933Z,83356.12
2018-12-31T07:01:04.550Z,83359.87
2018-12-31T07:06:08.906Z,83356.45
2018-12-31T07:11:15.020Z,83359.47
2018-12-31T07:16:19.406Z,83358.62
2018-12-31T07:21:23.491Z,83361.13
2018-12-31T07:26:27.574Z,83360.63
2018-12-31T07:31:31.632Z,83362.53
2018-12-31T07:36:35.984Z,83364.59
2018-12-31T07:41:41.377Z,83366.53
2018-12-31T07:46:46.876Z,83361.05
2018-12-31T07:51:50.943Z,83363.66
2018-12-31T07:56:55.238Z,83362.99
2018-12-31T08:01:59.301Z,83366.06
2018-12-31T08:07:03.874Z,83367.12
2018-12-31T08:12:08.198Z,83371.63
2018-12-31T08:17:12.543Z,83375.00
2018-12-31T08:22:16.919Z,83375.94
2018-12-31T08:27:21.007Z,83379.56
2018-12-31T08:32:25.627Z,83379.27
2018-12-31T08:37:30.021Z,83376.77
2018-12-31T08:42:34.402Z,83381.50
2018-12-31T08:47:39.141Z,83382.06
2018-12-31T08:52:43.237Z,83387.70
2018-12-31T08:57:47.890Z,83399.75
2018-12-31T09:02:52.336Z,83407.64
2018-12-31T09:07:56.677Z,83412.02
2018-12-31T09:13:01.279Z,83407.61
2018-12-31T09:18:05.662Z,83414.82
2018-12-31T09:23:09.770Z,83424.33
2018-12-31T09:28:14.257Z,83425.44
2018-12-31T09:33:18.640Z,83429.83
2018-12-31T09:38:22.736Z,83432.53
2018-12-31T09:43:27.090Z,83429.53
2018-12-31T09:48:31.778Z,83428.61
2018-12-31T09:53:36.111Z,83430.97
2018-12-31T09:58:40.514Z,83437.17
2018-12-31T10:03:44.903Z,83453.16
2018-12-31T10:08:49.638Z,83468.73
2018-12-31T10:13:54.022Z,83477.55
2018-12-31T10:18:58.106Z,83478.09
2018-12-31T10:24:02.150Z,83471.47
2018-12-31T10:29:06.491Z,83477.35
2018-12-31T10:34:11.212Z,83474.53
2018-12-31T10:39:15.878Z,83483.45
2018-12-31T10:44:20.254Z,83486.20
2018-12-31T10:49:24.721Z,83496.70
2018-12-31T10:54:30.347Z,83497.27
2018-12-31T10:59:34.694Z,83500.21
2018-12-31T11:04:38.795Z,83507.68
2018-12-31T11:09:43.140Z,83496.36
2018-12-31T11:14:47.243Z,83494.25
2018-12-31T11:19:51.591Z,83494.92
2018-12-31T11:24:57.138Z,83490.96
2018-12-31T11:30:01.526Z,83493.75
2018-12-31T11:35:05.682Z,83493.83
2018-12-31T11:40:10.294Z,83491.47
2018-12-31T11:45:14.685Z,83493.58
2018-12-31T11:50:19.086Z,83495.09
2018-12-31T11:55:23.784Z,83488.89
2018-12-31T12:00:27.875Z,83495.65
2018-12-31T12:05:32.832Z,83502.44
2018-12-31T12:10:37.175Z,83501.89
2018-12-31T12:15:41.270Z,83506.88
2018-12-31T12:20:46.782Z,83511.31
2018-12-31T12:25:50.874Z,83508.61
2018-12-31T12:30:55.462Z,83498.09
2018-12-31T12:35:59.554Z,83495.86
2018-12-31T12:41:03.603Z,83494.68
2018-12-31T12:46:07.653Z,83501.88
2018-12-31T12:51:12.042Z,83500.75
2018-12-31T12:56:16.094Z,83494.33
2018-12-31T13:01:20.142Z,83497.16
2018-12-31T13:06:24.557Z,83493.11
2018-12-31T13:11:28.658Z,83497.81
2018-12-31T13:16:33.259Z,83499.24
2018-12-31T13:21:37.895Z,83501.39
2018-12-31T13:26:43.758Z,83507.10
2018-12-31T13:31:47.753Z,83504.75
2018-12-31T13:36:52.450Z,83511.13
2018-12-31T13:41:56.557Z,83516.00
2018-12-31T13:47:00.863Z,83514.25
2018-12-31T13:52:04.910Z,83511.05
2018-12-31T13:57:09.598Z,83514.33
2018-12-31T14:02:13.679Z,83511.17
2018-12-31T14:07:18.411Z,83505.75
2018-12-31T14:12:22.746Z,83504.58
2018-12-31T14:17:27.110Z,83507.64
2018-12-31T14:22:31.203Z,83507.27
2018-12-31T14:27:35.554Z,83504.88
2018-12-31T14:32:39.944Z,83504.45
2018-12-31T14:37:44.046Z,83503.35
2018-12-31T14:42:48.234Z,83498.84
2018-12-31T14:47:52.580Z,83495.59
2018-12-31T14:52:56.695Z,83493.77
2018-12-31T14:58:00.750Z,83493.57
2018-12-31T15:03:05.454Z,83486.44
2018-12-31T15:08:10.096Z,83486.70
2018-12-31T15:13:14.272Z,83486.44
2018-12-31T15:18:18.611Z,83486.60
2018-12-31T15:23:23.694Z,83479.20
2018-12-31T15:28:27.894Z,83476.59
2018-12-31T15:33:32.562Z,83468.61
2018-12-31T15:38:37.237Z,83468.84
2018-12-31T15:43:41.901Z,83468.61
2018-12-31T15:48:46.285Z,83460.75
2018-12-31T15:53:51.273Z,83458.11
2018-12-31T15:58:55.362Z,83461.00
2018-12-31T16:03:59.887Z,83459.53
2018-12-31T16:09:06.445Z,83450.54
2018-12-31T16:14:10.814Z,83444.16
2018-12-31T16:19:15.527Z,83440.70
2018-12-31T16:24:20.489Z,83439.59
2018-12-31T16:29:24.858Z,83435.17
2018-12-31T16:34:29.643Z,83431.21
2018-12-31T16:39:34.046Z,83433.58
2018-12-31T16:44:38.392Z,83431.84
2018-12-31T16:49:42.500Z,83428.39
2018-12-31T16:54:47.071Z,83428.55
2018-12-31T16:59:51.449Z,83418.95
2018-12-31T17:04:56.696Z,83418.38
2018-12-31T17:10:01.344Z,83414.06
2018-12-31T17:15:06.620Z,83406.38
2018-12-31T17:20:11.034Z,83410.20
2018-12-31T17:25:15.416Z,83409.06
2018-12-31T17:30:19.517Z,83404.66
2018-12-31T17:35:23.627Z,83404.00
2018-12-31T17:40:27.974Z,83397.76
2018-12-31T17:45:32.345Z,83401.72
2018-12-31T17:50:36.755Z,83394.41
2018-12-31T17:55:41.421Z,83392.32
2018-12-31T18:00:46.915Z,83394.25
2018-12-31T18:05:51.259Z,83393.25
2018-12-31T18:10:55.594Z,83385.75
2018-12-31T18:15:59.940Z,83383.95
2018-12-31T18:21:04.327Z,83386.25
2018-12-31T18:26:09.060Z,83385.32
2018-12-31T18:31:13.147Z,83389.66
2018-12-31T18:36:17.556Z,83389.95
2018-12-31T18:41:21.661Z,83390.68
2018-12-31T18:46:26.010Z,83389.45
2018-12-31T18:51:30.141Z,83391.22
2018-12-31T18:56:34.483Z,83390.72
2018-12-31T19:01:38.599Z,83389.33
2018-12-31T19:06:43.059Z,83383.91
2018-12-31T19:11:47.117Z,83378.74
2018-12-31T19:16:51.466Z,83383.67
2018-12-31T19:21:55.739Z,83381.23
2018-12-31T19:27:00.036Z,83377.19
2018-12-31T19:32:04.762Z,83372.68
2018-12-31T19:37:08.850Z,83376.22
2018-12-31T19:42:13.511Z,83373.76
2018-12-31T19:47:18.157Z,83370.14
2018-12-31T19:52:22.525Z,83361.80
2018-12-31T19:57:26.965Z,83359.56
2018-12-31T20:02:31.310Z,83359.97
2018-12-31T20:07:35.659Z,83362.05
2018-12-31T20:12:40.250Z,83362.72
2018-12-31T20:17:44.353Z,83361.81
2018-12-31T20:22:48.408Z,83356.53
2018-12-31T20:27:52.455Z,83356.03
2018-12-31T20:32:57.088Z,83362.25
2018-12-31T20:38:01.178Z,83360.41
2018-12-31T20:43:05.475Z,83360.34
2018-12-31T20:48:09.523Z,83362.55
2018-12-31T20:53:13.862Z,83357.80
2018-12-31T20:58:17.917Z,83355.60
2018-12-31T21:03:22.066Z,83348.16
2018-12-31T21:08:26.405Z,83346.56
2018-12-31T21:13:30.745Z,83337.80
2018-12-31T21:18:35.148Z,83340.43
2018-12-31T21:23:41.253Z,83337.83
2018-12-31T21:28:45.780Z,83337.88
2018-12-31T21:33:50.174Z,83328.30
2018-12-31T21:38:54.258Z,83330.77
2018-12-31T21:43:58.848Z,83329.04
2018-12-31T21:49:03.566Z,83328.70
2018-12-31T21:54:07.945Z,83323.00
2018-12-31T21:59:12.407Z,83324.86
2018-12-31T22:04:16.446Z,83326.37
2018-12-31T22:09:20.496Z,83325.36
2018-12-31T22:14:24.781Z,83328.70
2018-12-31T22:19:30.270Z,83326.73
2018-12-31T22:24:34.600Z,83323.89
2018-12-31T22:29:39.023Z,83321.00
2018-12-31T22:34:43.735Z,83318.73
2018-12-31T22:39:48.083Z,83323.33
2018-12-31T22:44:53.108Z,83314.92
2018-12-31T22:49:57.502Z,83324.73
2018-12-31T22:55:02.181Z,83328.57
2018-12-31T23:00:09.553Z,83324.27
2018-12-31T23:05:14.041Z,83316.95
2018-12-31T23:10:18.430Z,83319.47
2018-12-31T23:15:23.173Z,83324.27
2018-12-31T23:20:27.253Z,83327.96
2018-12-31T23:25:31.888Z,83328.30
2018-12-31T23:30:35.981Z,83331.23
2018-12-31T23:35:40.032Z,83330.60
2018-12-31T23:40:44.102Z,83326.56
2018-12-31T23:45:48.261Z,83327.62
2018-12-31T23:50:52.344Z,83321.73
2018-12-31T23:55:56.651Z,83321.33
